Airport View

Enter AWOS ICAO identifier for current METAR.

ex. KFNL

KCPT 101615Z AUTO 18013G18KT 10SM CLR 32/21 A3008 RMK A01

10 Aug 2020 16:21

Frequency: 119.525

Phone: 817-641-4135

Other Area AWOS: KFWS - KGDJ - KINJ - KNFW

TAF KNFW 1015/1115 19015G20KT 9999 FEW250 QNH2990INS FM111200 20012KT 9999 FEW018 SCT250 QNH2988INS T38/1021Z T26/1112Z FN20046